createdAt,value
2022-09-12T00:01:40.842Z,43.25
2022-09-12T00:04:12.137Z,52.25
2022-09-12T00:06:41.107Z,52.50
2022-09-12T00:09:13.007Z,56.50
2022-09-12T00:11:44.485Z,57.75
2022-09-12T00:14:16.352Z,52.25
2022-09-12T00:16:46.186Z,47.50
2022-09-12T00:19:15.545Z,59.25
2022-09-12T00:21:44.611Z,51.50
2022-09-12T00:24:14.032Z,41.50
2022-09-12T00:26:43.024Z,80.50
2022-09-12T00:29:20.082Z,66.25
2022-09-12T00:31:49.437Z,30.50
2022-09-12T00:34:18.590Z,22.00
2022-09-12T00:36:47.688Z,22.25
2022-09-12T00:39:18.045Z,22.50
2022-09-12T00:41:47.277Z,23.25
2022-09-12T00:44:30.102Z,24.25
2022-09-12T00:47:04.741Z,28.50
2022-09-12T00:49:39.747Z,29.00
2022-09-12T00:52:33.090Z,29.00
2022-09-12T00:55:04.918Z,36.75
2022-09-12T00:57:39.415Z,30.25
2022-09-12T01:00:17.038Z,25.00
2022-09-12T01:02:49.271Z,31.50
2022-09-12T01:05:18.940Z,25.50
2022-09-12T01:07:50.404Z,23.00
2022-09-12T01:10:20.711Z,26.25
2022-09-12T01:12:50.003Z,21.75
2022-09-12T01:15:19.077Z,25.75
2022-09-12T01:17:50.990Z,22.25
2022-09-12T01:20:26.831Z,24.25
2022-09-12T01:23:19.695Z,29.25
2022-09-12T01:26:17.365Z,27.50
2022-09-12T01:29:21.264Z,30.00
2022-09-12T01:32:18.543Z,21.25
2022-09-12T01:35:02.120Z,19.25
2022-09-12T01:37:40.158Z,24.50
2022-09-12T01:40:13.721Z,23.25
2022-09-12T01:43:01.297Z,27.50
2022-09-12T01:45:39.091Z,32.75
2022-09-12T01:48:16.577Z,29.50
2022-09-12T01:50:53.894Z,27.50
2022-09-12T01:53:28.308Z,29.25
2022-09-12T01:56:06.783Z,25.50
2022-09-12T01:58:47.550Z,30.25
2022-09-12T02:01:19.452Z,32.75
2022-09-12T02:04:00.028Z,32.25
2022-09-12T02:06:31.872Z,29.75
2022-09-12T02:09:04.451Z,21.75
2022-09-12T02:11:36.547Z,29.75
2022-09-12T02:14:11.316Z,28.00
2022-09-12T02:16:46.442Z,31.75
2022-09-12T02:19:18.563Z,24.50
2022-09-12T02:21:59.149Z,24.75
2022-09-12T02:24:33.903Z,29.75
2022-09-12T02:27:14.738Z,26.75
2022-09-12T02:29:45.783Z,31.25
2022-09-12T02:32:23.617Z,30.50
2022-09-12T02:35:01.246Z,26.50
2022-09-12T02:37:54.243Z,25.00
2022-09-12T02:40:23.631Z,30.50
2022-09-12T02:42:53.368Z,33.75
2022-09-12T02:45:23.949Z,45.00
2022-09-12T02:48:24.594Z,41.25
2022-09-12T02:50:54.421Z,45.75
2022-09-12T02:53:23.972Z,49.00
2022-09-12T02:55:54.020Z,58.75
2022-09-12T02:58:26.227Z,63.00
2022-09-12T03:01:14.535Z,55.75
2022-09-12T03:03:52.191Z,63.50
2022-09-12T03:06:26.648Z,61.50
2022-09-12T03:09:01.709Z,57.50
2022-09-12T03:12:02.562Z,53.75
2022-09-12T03:14:53.997Z,58.50
2022-09-12T03:17:50.126Z,60.25
2022-09-12T03:20:27.634Z,60.75
2022-09-12T03:22:59.737Z,61.50
2022-09-12T03:25:37.489Z,51.75
2022-09-12T03:28:09.514Z,54.00
2022-09-12T03:30:53.681Z,60.25
2022-09-12T03:33:24.363Z,59.25
2022-09-12T03:35:54.524Z,54.75
2022-09-12T03:38:23.645Z,54.00
2022-09-12T03:40:54.862Z,46.25
2022-09-12T03:43:23.373Z,52.00
2022-09-12T03:45:53.633Z,57.25
2022-09-12T03:48:22.991Z,53.50
2022-09-12T03:50:51.983Z,51.25
2022-09-12T03:53:21.012Z,48.25
2022-09-12T03:55:50.034Z,43.50
2022-09-12T03:58:19.013Z,41.25
2022-09-12T04:00:48.145Z,32.50
2022-09-12T04:03:17.326Z,39.00
2022-09-12T04:05:47.255Z,42.00
2022-09-12T04:08:16.704Z,34.25
2022-09-12T04:10:46.974Z,38.25
2022-09-12T04:13:16.273Z,35.25
2022-09-12T04:15:45.266Z,31.00
2022-09-12T04:18:14.212Z,35.50
2022-09-12T04:20:43.249Z,38.00
2022-09-12T04:23:12.296Z,41.25
2022-09-12T04:25:41.341Z,33.25
2022-09-12T04:28:10.298Z,44.00
2022-09-12T04:30:39.464Z,39.50
2022-09-12T04:33:08.395Z,36.50
2022-09-12T04:35:37.962Z,33.75
2022-09-12T04:38:07.001Z,38.00
2022-09-12T04:40:36.622Z,27.50
2022-09-12T04:43:10.147Z,29.00
2022-09-12T04:45:37.793Z,48.00
2022-09-12T04:48:06.892Z,47.25
2022-09-12T04:50:35.896Z,60.00
2022-09-12T04:53:04.926Z,58.00
2022-09-12T04:55:35.884Z,65.75
2022-09-12T04:58:04.951Z,67.25
2022-09-12T05:00:35.120Z,63.50
2022-09-12T05:03:04.187Z,65.50
2022-09-12T05:05:33.247Z,73.25
2022-09-12T05:08:02.163Z,74.75
2022-09-12T05:10:31.497Z,78.00
2022-09-12T05:13:00.601Z,70.25
2022-09-12T05:15:29.535Z,79.00
2022-09-12T05:17:58.615Z,70.50
2022-09-12T05:20:27.739Z,74.50
2022-09-12T05:22:56.754Z,73.50
2022-09-12T05:25:25.753Z,57.00
2022-09-12T05:27:55.013Z,77.00
2022-09-12T05:30:24.002Z,75.75
2022-09-12T05:32:53.004Z,68.50
2022-09-12T05:35:22.050Z,71.75
2022-09-12T05:37:51.034Z,75.25
2022-09-12T05:40:21.847Z,68.50
2022-09-12T05:42:50.809Z,61.25
2022-09-12T05:45:19.772Z,59.25
2022-09-12T05:47:49.243Z,60.25
2022-09-12T05:50:18.290Z,71.25
2022-09-12T05:52:47.664Z,83.00
2022-09-12T05:55:17.380Z,94.50
2022-09-12T05:57:46.861Z,96.25
2022-09-12T06:00:16.733Z,87.50
2022-09-12T06:02:45.721Z,66.25
2022-09-12T06:05:14.950Z,61.25
2022-09-12T06:07:43.931Z,59.75
2022-09-12T06:10:13.457Z,59.75
2022-09-12T06:12:43.902Z,56.50
2022-09-12T06:15:14.585Z,59.75
2022-09-12T06:17:44.429Z,44.75
2022-09-12T06:20:14.759Z,56.00
2022-09-12T06:22:43.718Z,53.50
2022-09-12T06:25:12.673Z,51.00
2022-09-12T06:27:41.763Z,57.50
2022-09-12T06:30:11.720Z,67.25
2022-09-12T06:32:40.841Z,82.25
2022-09-12T06:35:10.256Z,74.25
2022-09-12T06:37:39.230Z,39.50
2022-09-12T06:40:11.072Z,42.25
2022-09-12T06:42:40.025Z,48.75
2022-09-12T06:45:10.098Z,55.75
2022-09-12T06:47:39.076Z,57.00
2022-09-12T06:50:09.204Z,85.25
2022-09-12T06:52:38.289Z,91.25
2022-09-12T06:55:07.871Z,104.25
2022-09-12T06:57:38.501Z,111.50
2022-09-12T07:00:08.227Z,116.25
2022-09-12T07:02:37.209Z,112.50
2022-09-12T07:05:06.665Z,139.75
2022-09-12T07:07:36.226Z,147.00
2022-09-12T07:10:06.745Z,139.00
2022-09-12T07:12:35.772Z,170.25
2022-09-12T07:15:05.057Z,153.00
2022-09-12T07:17:34.220Z,155.75
2022-09-12T07:20:03.744Z,137.25
2022-09-12T07:22:32.783Z,124.00
2022-09-12T07:25:02.392Z,131.75
2022-09-12T07:27:31.398Z,122.75
2022-09-12T07:30:00.893Z,118.75
2022-09-12T07:32:29.870Z,137.00
2022-09-12T07:34:58.840Z,136.00
2022-09-12T07:37:29.707Z,123.25
2022-09-12T07:39:59.525Z,133.75
2022-09-12T07:42:28.672Z,120.00
2022-09-12T07:44:57.633Z,116.25
2022-09-12T07:47:26.542Z,103.25
2022-09-12T07:49:55.608Z,107.00
2022-09-12T07:52:24.587Z,104.25
2022-09-12T07:54:53.540Z,108.50
2022-09-12T07:57:22.537Z,101.50
2022-09-12T07:59:53.249Z,108.75
2022-09-12T08:02:23.050Z,105.00
2022-09-12T08:04:53.025Z,94.50
2022-09-12T08:07:22.169Z,95.25
2022-09-12T08:09:51.203Z,98.00
2022-09-12T08:12:20.705Z,75.00
2022-09-12T08:14:49.642Z,57.50
2022-09-12T08:17:18.682Z,53.50
2022-09-12T08:19:48.490Z,55.50
2022-09-12T08:22:19.033Z,65.50
2022-09-12T08:24:47.991Z,49.25
2022-09-12T08:27:17.030Z,51.75
2022-09-12T08:29:46.031Z,42.40
2022-09-12T08:32:15.087Z,40.00
2022-09-12T08:34:44.143Z,35.40
2022-09-12T08:37:13.158Z,33.40
2022-09-12T08:39:42.380Z,35.00
2022-09-12T08:42:13.821Z,32.40
2022-09-12T08:45:02.134Z,33.40
2022-09-12T08:47:43.253Z,31.20
2022-09-12T08:50:20.935Z,32.80
2022-09-12T08:53:03.266Z,30.20
2022-09-12T08:55:35.497Z,35.20
2022-09-12T08:58:10.787Z,40.00
2022-09-12T09:00:42.802Z,32.80
2022-09-12T09:03:30.050Z,35.40
2022-09-12T09:06:18.580Z,30.20
2022-09-12T09:09:07.579Z,42.00
2022-09-12T09:12:05.397Z,37.40
2022-09-12T09:14:52.906Z,37.00
2022-09-12T09:17:42.697Z,32.20
2022-09-12T09:20:28.261Z,28.80
2022-09-12T09:23:09.460Z,30.40
2022-09-12T09:25:59.823Z,32.00
2022-09-12T09:28:38.031Z,29.60
2022-09-12T09:31:08.781Z,29.20
2022-09-12T09:33:38.777Z,29.60
2022-09-12T09:36:10.739Z,33.60
2022-09-12T09:39:06.743Z,25.80
2022-09-12T09:41:41.150Z,25.20
2022-09-12T09:44:10.846Z,30.20
2022-09-12T09:46:39.842Z,32.40
2022-09-12T09:49:10.573Z,41.20
2022-09-12T09:51:42.244Z,38.20
2022-09-12T09:54:32.343Z,45.40
2022-09-12T09:57:01.553Z,44.20
2022-09-12T09:59:35.297Z,27.80
2022-09-12T10:02:24.376Z,29.00
2022-09-12T10:04:59.092Z,41.60
2022-09-12T10:07:28.881Z,53.20
2022-09-12T10:10:12.944Z,27.80
2022-09-12T10:12:42.344Z,56.20
2022-09-12T10:15:34.380Z,32.80
2022-09-12T10:18:03.977Z,32.60
2022-09-12T10:20:45.000Z,33.20
2022-09-12T10:23:25.793Z,27.20
2022-09-12T10:25:58.005Z,65.60
2022-09-12T10:28:39.648Z,23.20
2022-09-12T10:31:10.935Z,31.40
2022-09-12T10:33:52.478Z,19.00
2022-09-12T10:36:25.142Z,30.40
2022-09-12T10:38:57.001Z,20.80
2022-09-12T10:41:26.676Z,24.40
2022-09-12T10:43:59.120Z,23.00
2022-09-12T10:46:30.417Z,25.80
2022-09-12T10:49:17.465Z,30.20
2022-09-12T10:51:46.529Z,21.20
2022-09-12T10:54:18.340Z,29.60
2022-09-12T10:56:52.971Z,27.40
2022-09-12T10:59:31.543Z,22.80
2022-09-12T11:02:23.073Z,29.60
2022-09-12T11:05:31.667Z,22.00
2022-09-12T11:08:12.287Z,27.40
2022-09-12T11:10:44.625Z,24.00
2022-09-12T11:13:19.311Z,30.80
2022-09-12T11:15:56.964Z,32.00
2022-09-12T11:18:48.505Z,29.00
2022-09-12T11:21:41.552Z,36.20
2022-09-12T11:24:29.800Z,57.75
2022-09-12T11:27:13.695Z,52.00
2022-09-12T11:29:57.537Z,50.00
2022-09-12T11:32:53.634Z,67.25
2022-09-12T11:35:28.323Z,38.40
2022-09-12T11:38:16.653Z,35.80
2022-09-12T11:40:52.423Z,29.40
2022-09-12T11:43:27.435Z,26.20
2022-09-12T11:45:59.821Z,28.00
2022-09-12T11:48:44.941Z,33.60
2022-09-12T11:51:22.955Z,28.40
2022-09-12T11:54:13.340Z,30.80
2022-09-12T11:56:47.513Z,33.20
2022-09-12T11:59:19.424Z,39.80
2022-09-12T12:01:51.469Z,38.20
2022-09-12T12:04:23.331Z,34.60
2022-09-12T12:07:04.292Z,31.60
2022-09-12T12:09:33.932Z,31.20
2022-09-12T12:12:08.838Z,31.80
2022-09-12T12:14:43.509Z,42.40
2022-09-12T12:17:18.715Z,54.00
2022-09-12T12:19:51.098Z,55.80
2022-09-12T12:22:25.743Z,51.50
2022-09-12T12:25:09.792Z,69.00
2022-09-12T12:27:58.830Z,69.25
2022-09-12T12:30:43.685Z,66.00
2022-09-12T12:33:15.511Z,70.50
2022-09-12T12:36:02.695Z,69.25
2022-09-12T12:38:37.361Z,46.60
2022-09-12T12:41:24.382Z,28.20
2022-09-12T12:43:56.723Z,31.40
2022-09-12T12:46:28.946Z,33.60
2022-09-12T12:49:06.931Z,31.40
2022-09-12T12:51:47.976Z,27.40
2022-09-12T12:54:36.502Z,32.60
2022-09-12T12:57:30.060Z,29.80
2022-09-12T13:00:02.070Z,31.40
2022-09-12T13:02:34.066Z,36.40
2022-09-12T13:05:06.538Z,32.40
2022-09-12T13:07:41.407Z,39.40
2022-09-12T13:10:12.198Z,34.20
2022-09-12T13:12:49.224Z,35.20
2022-09-12T13:15:41.012Z,31.00
2022-09-12T13:18:13.287Z,36.60
2022-09-12T13:20:59.905Z,36.00
2022-09-12T13:23:32.840Z,39.20
2022-09-12T13:26:03.679Z,35.40
2022-09-12T13:28:33.153Z,36.40
2022-09-12T13:31:10.807Z,38.00
2022-09-12T13:33:45.561Z,34.60
2022-09-12T13:36:40.502Z,37.80
2022-09-12T13:39:32.392Z,33.80
2022-09-12T13:42:16.441Z,37.20
2022-09-12T13:44:58.085Z,37.20
2022-09-12T13:47:29.990Z,36.60
2022-09-12T13:49:59.874Z,38.60
2022-09-12T13:52:31.872Z,41.00
2022-09-12T13:55:03.123Z,33.40
2022-09-12T13:57:42.364Z,37.20
2022-09-12T14:00:22.735Z,37.80
2022-09-12T14:02:56.942Z,32.60
2022-09-12T14:05:27.796Z,29.40
2022-09-12T14:08:06.770Z,39.40
2022-09-12T14:10:41.603Z,27.40
2022-09-12T14:13:16.268Z,36.80
2022-09-12T14:15:52.770Z,38.80
2022-09-12T14:18:27.430Z,43.60
2022-09-12T14:21:00.222Z,33.80
2022-09-12T14:23:33.965Z,30.60
2022-09-12T14:26:06.772Z,30.80
2022-09-12T14:28:37.920Z,33.00
2022-09-12T14:31:10.659Z,39.40
2022-09-12T14:33:51.701Z,38.00
2022-09-12T14:36:23.633Z,44.40
2022-09-12T14:38:55.607Z,33.40
2022-09-12T14:41:30.763Z,38.20
2022-09-12T14:44:02.283Z,36.00
2022-09-12T14:46:37.604Z,36.00
2022-09-12T14:49:27.720Z,36.80
2022-09-12T14:52:00.326Z,32.40
2022-09-12T14:54:37.681Z,35.20
2022-09-12T14:57:30.868Z,42.40
2022-09-12T15:00:20.084Z,24.20
2022-09-12T15:02:50.788Z,42.00
2022-09-12T15:05:25.773Z,46.40
2022-09-12T15:07:59.817Z,42.60
2022-09-12T15:10:39.980Z,41.00
2022-09-12T15:13:15.025Z,50.60
2022-09-12T15:15:47.123Z,47.00
2022-09-12T15:18:16.740Z,40.80
2022-09-12T15:20:47.987Z,42.20
2022-09-12T15:23:19.987Z,50.80
2022-09-12T15:25:49.187Z,49.40
2022-09-12T15:28:21.219Z,49.80
2022-09-12T15:30:52.786Z,41.80
2022-09-12T15:33:26.492Z,38.80
2022-09-12T15:35:55.712Z,44.60
2022-09-12T15:38:26.685Z,40.40
2022-09-12T15:40:56.092Z,49.00
2022-09-12T15:43:26.456Z,48.00
2022-09-12T15:45:55.755Z,51.40
2022-09-12T15:48:24.750Z,46.60
2022-09-12T15:50:53.821Z,50.00
2022-09-12T15:53:22.802Z,59.75
2022-09-12T15:55:51.840Z,47.20
2022-09-12T15:58:20.873Z,60.00
2022-09-12T16:00:50.148Z,50.20
2022-09-12T16:03:25.025Z,61.00
2022-09-12T16:06:01.835Z,58.50
2022-09-12T16:08:33.293Z,56.00
2022-09-12T16:11:14.135Z,50.00
2022-09-12T16:13:45.892Z,59.00
2022-09-12T16:16:14.955Z,53.50
2022-09-12T16:18:44.158Z,58.00
2022-09-12T16:21:15.512Z,57.75
2022-09-12T16:23:48.587Z,49.50
2022-09-12T16:26:18.382Z,45.25
2022-09-12T16:28:47.902Z,40.75
2022-09-12T16:31:17.049Z,48.25
2022-09-12T16:33:46.402Z,46.20
2022-09-12T16:36:17.180Z,44.40
2022-09-12T16:38:54.356Z,45.25
2022-09-12T16:41:25.656Z,43.80
2022-09-12T16:43:55.515Z,50.25
2022-09-12T16:46:28.969Z,42.50
2022-09-12T16:48:59.678Z,45.00
2022-09-12T16:51:31.364Z,45.50
2022-09-12T16:54:00.598Z,54.00
2022-09-12T16:56:29.614Z,50.00
2022-09-12T16:58:58.615Z,44.75
2022-09-12T17:01:28.587Z,41.50
2022-09-12T17:03:59.501Z,46.75
2022-09-12T17:06:29.312Z,46.75
2022-09-12T17:09:02.237Z,48.00
2022-09-12T17:11:34.118Z,52.75
2022-09-12T17:14:06.901Z,45.50
2022-09-12T17:16:38.927Z,55.25
2022-09-12T17:19:08.924Z,51.50
2022-09-12T17:21:37.907Z,40.25
2022-09-12T17:24:06.985Z,53.00
2022-09-12T17:26:36.010Z,45.25
2022-09-12T17:29:05.054Z,48.50
2022-09-12T17:31:34.091Z,50.00
2022-09-12T17:34:03.791Z,48.25
2022-09-12T17:36:32.848Z,45.50
2022-09-12T17:39:03.889Z,44.75
2022-09-12T17:41:33.954Z,51.25
2022-09-12T17:44:03.826Z,56.25
2022-09-12T17:46:40.781Z,49.25
2022-09-12T17:49:15.385Z,48.00
2022-09-12T17:51:45.241Z,47.00
2022-09-12T17:54:16.964Z,46.00
2022-09-12T17:56:49.166Z,50.40
2022-09-12T17:59:20.622Z,52.50
2022-09-12T18:02:07.972Z,51.25
2022-09-12T18:04:37.600Z,44.75
2022-09-12T18:07:08.304Z,49.75
2022-09-12T18:09:37.351Z,47.25
2022-09-12T18:12:07.141Z,37.60
2022-09-12T18:14:36.206Z,35.00
2022-09-12T18:17:07.899Z,32.00
2022-09-12T18:19:37.409Z,33.40
2022-09-12T18:22:07.274Z,34.20
2022-09-12T18:24:36.372Z,32.60
2022-09-12T18:27:05.577Z,21.00
2022-09-12T18:29:34.678Z,31.50
2022-09-12T18:32:04.044Z,35.50
2022-09-12T18:34:33.075Z,29.25
2022-09-12T18:37:03.734Z,24.25
2022-09-12T18:39:32.810Z,30.00
2022-09-12T18:42:01.850Z,24.00
2022-09-12T18:44:31.311Z,24.00
2022-09-12T18:47:02.082Z,28.00
2022-09-12T18:49:31.826Z,17.25
2022-09-12T18:52:00.910Z,21.50
2022-09-12T18:54:29.928Z,13.50
2022-09-12T18:56:58.993Z,16.00
2022-09-12T18:59:28.028Z,14.75
2022-09-12T19:01:57.106Z,9.75
2022-09-12T19:04:26.215Z,24.75
2022-09-12T19:06:55.277Z,32.50
2022-09-12T19:09:24.329Z,62.75
2022-09-12T19:11:53.347Z,60.50
2022-09-12T19:14:25.069Z,70.50
2022-09-12T19:16:54.469Z,75.00
2022-09-12T19:19:23.670Z,84.25
2022-09-12T19:21:52.676Z,79.75
2022-09-12T19:24:22.031Z,71.75
2022-09-12T19:26:51.985Z,77.25
2022-09-12T19:29:21.111Z,68.50
2022-09-12T19:31:50.072Z,71.25
2022-09-12T19:34:19.210Z,68.75
2022-09-12T19:36:48.281Z,69.50
2022-09-12T19:39:20.358Z,66.75
2022-09-12T19:41:49.360Z,64.50
2022-09-12T19:44:19.444Z,62.50
2022-09-12T19:46:48.529Z,58.25
2022-09-12T19:49:17.707Z,63.25
2022-09-12T19:51:46.749Z,52.00
2022-09-12T19:54:15.752Z,36.25
2022-09-12T19:56:44.802Z,14.50
2022-09-12T19:59:14.019Z,13.50
2022-09-12T20:01:43.189Z,10.25
2022-09-12T20:04:12.295Z,17.50
2022-09-12T20:06:41.365Z,15.50
2022-09-12T20:09:10.435Z,15.00
2022-09-12T20:11:39.456Z,20.00
2022-09-12T20:14:08.451Z,10.50
2022-09-12T20:16:37.576Z,9.75
2022-09-12T20:19:08.967Z,11.25
2022-09-12T20:21:38.283Z,12.25
2022-09-12T20:24:13.011Z,9.75
2022-09-12T20:26:42.326Z,14.50
2022-09-12T20:29:11.898Z,14.00
2022-09-12T20:31:42.195Z,22.50
2022-09-12T20:34:14.106Z,21.00
2022-09-12T20:36:43.173Z,19.50
2022-09-12T20:39:17.935Z,20.00
2022-09-12T20:41:47.064Z,24.25
2022-09-12T20:44:16.317Z,26.75
2022-09-12T20:46:45.495Z,31.75
2022-09-12T20:49:14.611Z,43.00
2022-09-12T20:51:43.683Z,46.00
2022-09-12T20:54:12.837Z,56.00
2022-09-12T20:56:41.765Z,59.00
2022-09-12T20:59:13.522Z,64.00
2022-09-12T21:01:42.588Z,67.50
2022-09-12T21:04:14.886Z,61.25
2022-09-12T21:06:42.375Z,48.00
2022-09-12T21:09:11.664Z,35.00
2022-09-12T21:11:40.771Z,25.25
2022-09-12T21:14:09.716Z,28.50
2022-09-12T21:16:38.879Z,34.25
2022-09-12T21:19:08.434Z,25.75
2022-09-12T21:21:37.517Z,26.50
2022-09-12T21:24:06.646Z,28.00
2022-09-12T21:26:35.618Z,27.75
2022-09-12T21:29:04.704Z,24.00
2022-09-12T21:31:33.886Z,26.00
2022-09-12T21:34:03.460Z,17.25
2022-09-12T21:36:32.470Z,20.25
2022-09-12T21:39:01.564Z,19.50
2022-09-12T21:41:30.556Z,17.25
2022-09-12T21:43:59.530Z,20.75
2022-09-12T21:46:28.607Z,19.00
2022-09-12T21:48:57.788Z,19.00
2022-09-12T21:51:26.824Z,21.75
2022-09-12T21:53:55.869Z,18.50
2022-09-12T21:56:25.117Z,16.00
2022-09-12T21:58:54.113Z,22.25
2022-09-12T22:01:23.319Z,33.25
2022-09-12T22:03:52.423Z,34.50
2022-09-12T22:06:22.664Z,33.00
2022-09-12T22:08:51.866Z,17.25
2022-09-12T22:11:21.482Z,18.75
2022-09-12T22:13:50.569Z,20.50
2022-09-12T22:16:19.730Z,27.50
2022-09-12T22:18:50.433Z,22.25
2022-09-12T22:21:22.304Z,23.50
2022-09-12T22:24:09.693Z,20.75
2022-09-12T22:26:44.139Z,29.50
2022-09-12T22:29:13.540Z,25.25
2022-09-12T22:31:43.137Z,28.25
2022-09-12T22:34:12.519Z,27.00
2022-09-12T22:36:42.064Z,30.75
2022-09-12T22:39:11.117Z,37.00
2022-09-12T22:41:40.098Z,37.25
2022-09-12T22:44:09.041Z,36.75
2022-09-12T22:46:38.709Z,48.25
2022-09-12T22:49:08.608Z,57.25
2022-09-12T22:51:37.648Z,59.25
2022-09-12T22:54:07.312Z,63.25
2022-09-12T22:56:36.524Z,61.50
2022-09-12T22:59:05.917Z,63.25
2022-09-12T23:01:35.783Z,65.25
2022-09-12T23:04:05.665Z,68.75
2022-09-12T23:06:34.743Z,65.75
2022-09-12T23:09:03.701Z,77.75
2022-09-12T23:11:32.722Z,75.25
2022-09-12T23:14:01.763Z,67.25
2022-09-12T23:16:32.432Z,71.75
2022-09-12T23:19:01.507Z,69.50
2022-09-12T23:21:30.547Z,67.75
2022-09-12T23:23:59.706Z,65.75
2022-09-12T23:26:29.868Z,68.75
2022-09-12T23:29:01.253Z,66.50
2022-09-12T23:31:32.459Z,63.50
2022-09-12T23:34:04.050Z,59.50
2022-09-12T23:36:33.082Z,66.00
2022-09-12T23:39:02.599Z,62.50
2022-09-12T23:41:31.712Z,71.00
2022-09-12T23:44:00.949Z,78.25
2022-09-12T23:46:29.921Z,80.25
2022-09-12T23:48:58.884Z,83.75
2022-09-12T23:51:27.870Z,84.25
2022-09-12T23:53:56.831Z,82.25
2022-09-12T23:56:26.167Z,85.50
2022-09-12T23:58:55.207Z,86.00
